createdAt,value
2018-12-08T00:03:15.617Z,5.40
2018-12-08T00:08:19.407Z,5.30
2018-12-08T00:13:23.237Z,5.30
2018-12-08T00:18:27.064Z,5.40
2018-12-08T00:23:30.614Z,5.60
2018-12-08T00:28:34.341Z,5.60
2018-12-08T00:33:38.854Z,5.60
2018-12-08T00:38:42.558Z,5.40
2018-12-08T00:43:46.030Z,5.20
2018-12-08T00:48:50.240Z,5.10
2018-12-08T00:53:53.988Z,5.10
2018-12-08T00:58:58.266Z,5.00
2018-12-08T01:04:01.777Z,5.00
2018-12-08T01:09:08.059Z,5.00
2018-12-08T01:14:11.938Z,5.10
2018-12-08T01:19:15.431Z,5.20
2018-12-08T01:24:18.942Z,5.20
2018-12-08T01:29:22.508Z,5.00
2018-12-08T01:34:25.968Z,4.70
2018-12-08T01:39:29.436Z,4.50
2018-12-08T01:44:33.256Z,4.40
2018-12-08T01:49:36.999Z,4.20
2018-12-08T01:54:40.853Z,4.20
2018-12-08T01:59:44.822Z,4.10
2018-12-08T02:04:48.401Z,4.10
2018-12-08T02:09:52.061Z,4.10
2018-12-08T02:14:55.628Z,4.10
2018-12-08T02:19:59.111Z,4.10
2018-12-08T02:25:02.978Z,4.00
2018-12-08T02:30:06.817Z,3.90
2018-12-08T02:35:10.383Z,3.90
2018-12-08T02:40:14.000Z,4.00
2018-12-08T02:45:17.480Z,4.00
2018-12-08T02:50:21.193Z,3.80
2018-12-08T02:55:24.966Z,3.80
2018-12-08T03:00:28.997Z,3.80
2018-12-08T03:05:32.806Z,3.90
2018-12-08T03:10:36.290Z,3.90
2018-12-08T03:15:40.188Z,3.90
2018-12-08T03:20:43.995Z,3.90
2018-12-08T03:25:47.494Z,3.90
2018-12-08T03:30:51.089Z,4.00
2018-12-08T03:35:54.598Z,3.90
2018-12-08T03:40:58.515Z,3.90
2018-12-08T03:46:02.423Z,4.00
2018-12-08T03:51:06.059Z,4.10
2018-12-08T03:56:10.626Z,4.10
2018-12-08T04:01:14.305Z,4.20
2018-12-08T04:06:17.844Z,4.10
2018-12-08T04:11:21.331Z,4.00
2018-12-08T04:16:24.958Z,3.90
2018-12-08T04:21:28.576Z,4.00
2018-12-08T04:26:32.446Z,4.00
2018-12-08T04:31:36.140Z,3.90
2018-12-08T04:36:39.851Z,3.80
2018-12-08T04:41:43.548Z,3.70
2018-12-08T04:46:48.417Z,3.70
2018-12-08T04:51:51.901Z,3.70
2018-12-08T04:56:55.386Z,3.60
2018-12-08T05:01:58.879Z,3.40
2018-12-08T05:07:02.366Z,3.40
2018-12-08T05:12:05.984Z,3.40
2018-12-08T05:17:09.473Z,3.50
2018-12-08T05:22:12.980Z,3.90
2018-12-08T05:27:16.658Z,4.10
2018-12-08T05:32:20.379Z,3.90
2018-12-08T05:37:24.441Z,3.90
2018-12-08T05:42:28.497Z,3.60
2018-12-08T05:47:33.106Z,3.70
2018-12-08T05:52:36.586Z,3.70
2018-12-08T05:57:40.060Z,3.70
2018-12-08T06:02:43.826Z,3.80
2018-12-08T06:07:47.339Z,3.70
2018-12-08T06:12:50.801Z,3.70
2018-12-08T06:17:54.274Z,3.90
2018-12-08T06:22:57.782Z,4.20
2018-12-08T06:28:17.894Z,4.20
2018-12-08T06:33:21.366Z,4.20
2018-12-08T06:38:25.468Z,4.00
2018-12-08T06:43:29.166Z,3.90
2018-12-08T06:48:32.676Z,3.90
2018-12-08T06:53:36.281Z,4.00
2018-12-08T06:58:39.771Z,4.00
2018-12-08T07:03:43.507Z,3.90
2018-12-08T07:08:46.977Z,3.80
2018-12-08T07:13:50.508Z,3.90
2018-12-08T07:18:54.381Z,4.00
2018-12-08T07:23:57.925Z,4.00
2018-12-08T07:29:01.518Z,4.00
2018-12-08T07:34:07.004Z,4.10
2018-12-08T07:39:12.786Z,4.20
2018-12-08T07:44:16.328Z,4.30
2018-12-08T07:49:20.065Z,4.40
2018-12-08T07:54:23.795Z,4.40
2018-12-08T07:59:27.281Z,4.40
2018-12-08T08:04:30.815Z,4.50
2018-12-08T08:09:34.479Z,4.70
2018-12-08T08:14:38.090Z,4.90
2018-12-08T08:19:41.711Z,5.00
2018-12-08T08:24:45.230Z,5.10
2018-12-08T08:29:48.735Z,5.00
2018-12-08T08:34:52.250Z,5.10
2018-12-08T08:39:55.848Z,5.00
2018-12-08T08:44:59.475Z,5.10
2018-12-08T08:50:05.128Z,5.20
2018-12-08T08:55:09.747Z,5.30
2018-12-08T09:00:15.644Z,5.40
2018-12-08T09:05:20.348Z,5.50
2018-12-08T09:10:24.841Z,5.60
2018-12-08T09:15:29.009Z,5.70
2018-12-08T09:20:33.159Z,5.60
2018-12-08T09:25:37.588Z,5.80
2018-12-08T09:30:41.234Z,5.90
2018-12-08T09:35:45.047Z,6.00
2018-12-08T09:40:48.756Z,6.00
2018-12-08T09:45:52.430Z,6.00
2018-12-08T09:50:56.240Z,6.00
2018-12-08T09:56:02.055Z,6.00
2018-12-08T10:01:06.559Z,6.00
2018-12-08T10:06:10.620Z,5.90
2018-12-08T10:11:16.144Z,6.10
2018-12-08T10:16:21.142Z,6.20
2018-12-08T10:21:25.262Z,6.10
2018-12-08T10:26:30.645Z,6.20
2018-12-08T10:31:34.532Z,6.20
2018-12-08T10:36:39.056Z,6.30
2018-12-08T10:41:43.185Z,6.30
2018-12-08T10:46:46.985Z,6.50
2018-12-08T10:51:51.218Z,6.50
2018-12-08T10:56:55.243Z,6.50
2018-12-08T11:02:02.628Z,6.60
2018-12-08T11:07:06.329Z,6.50
2018-12-08T11:12:10.306Z,6.40
2018-12-08T11:17:14.518Z,6.30
2018-12-08T11:22:19.041Z,6.30
2018-12-08T11:27:22.651Z,6.60
2018-12-08T11:32:26.880Z,6.60
2018-12-08T11:37:30.390Z,6.50
2018-12-08T11:42:33.920Z,6.90
2018-12-08T11:47:37.435Z,7.30
2018-12-08T11:52:41.340Z,7.40
2018-12-08T11:57:45.838Z,7.20
2018-12-08T12:02:49.306Z,7.20
2018-12-08T12:07:53.221Z,7.10
2018-12-08T12:12:57.702Z,7.30
2018-12-08T12:18:02.421Z,7.50
2018-12-08T12:28:19.910Z,8.30
2018-12-08T12:33:24.041Z,8.10
2018-12-08T12:38:28.566Z,7.40
2018-12-08T12:43:32.048Z,7.40
2018-12-08T12:48:35.513Z,7.00
2018-12-08T12:53:39.065Z,7.00
2018-12-08T12:58:42.839Z,7.10
2018-12-08T13:03:46.646Z,6.90
2018-12-08T13:08:50.523Z,6.70
2018-12-08T13:13:54.024Z,6.40
2018-12-08T13:18:58.958Z,6.20
2018-12-08T13:24:02.763Z,6.30
2018-12-08T13:29:06.722Z,6.40
2018-12-08T13:34:23.121Z,6.30
2018-12-08T13:39:27.573Z,6.40
2018-12-08T13:44:38.506Z,6.50
2018-12-08T13:49:48.629Z,6.50
2018-12-08T13:54:53.584Z,6.50
2018-12-08T13:59:58.524Z,6.40
2018-12-08T14:05:02.173Z,6.50
2018-12-08T14:10:07.929Z,6.60
2018-12-08T14:15:12.545Z,6.50
2018-12-08T14:20:29.746Z,6.50
2018-12-08T14:25:33.391Z,6.40
2018-12-08T14:30:37.496Z,6.50
2018-12-08T14:35:41.793Z,6.40
2018-12-08T14:40:46.836Z,6.40
2018-12-08T14:45:52.743Z,6.50
2018-12-08T14:50:56.413Z,6.40
2018-12-08T14:56:00.144Z,6.40
2018-12-08T15:01:09.384Z,6.40
2018-12-08T15:06:14.408Z,6.40
2018-12-08T15:11:18.930Z,6.30
2018-12-08T15:16:22.728Z,6.20
2018-12-08T15:21:26.464Z,6.20
2018-12-08T15:26:30.138Z,6.10
2018-12-08T15:31:33.680Z,6.20
2018-12-08T15:36:37.553Z,6.10
2018-12-08T15:41:41.115Z,6.10
2018-12-08T15:46:44.706Z,6.10
2018-12-08T15:51:49.448Z,6.10
2018-12-08T15:56:53.259Z,6.10
2018-12-08T16:01:59.863Z,6.10
2018-12-08T16:07:03.714Z,6.10
2018-12-08T16:12:07.350Z,6.10
2018-12-08T16:17:11.084Z,6.10
2018-12-08T16:22:14.899Z,6.10
2018-12-08T16:27:19.351Z,6.20
2018-12-08T16:32:23.777Z,6.20
2018-12-08T16:37:27.968Z,6.10
2018-12-08T16:42:31.647Z,6.20
2018-12-08T16:47:35.304Z,6.20
2018-12-08T16:52:39.072Z,6.10
2018-12-08T16:57:42.603Z,6.20
2018-12-08T17:02:46.681Z,6.10
2018-12-08T17:07:50.805Z,6.20
2018-12-08T17:12:55.978Z,6.20
2018-12-08T17:17:59.724Z,6.20
2018-12-08T17:23:03.778Z,6.30
2018-12-08T17:28:07.322Z,6.30
2018-12-08T17:33:10.772Z,6.30
2018-12-08T17:38:14.408Z,6.20
2018-12-08T17:43:17.946Z,6.20
2018-12-08T17:48:21.457Z,6.30
2018-12-08T17:53:25.581Z,6.30
2018-12-08T17:58:30.947Z,6.40
2018-12-08T18:03:35.002Z,6.30
2018-12-08T18:08:39.138Z,6.30
2018-12-08T18:13:42.776Z,6.30
2018-12-08T18:18:48.206Z,6.20
2018-12-08T18:23:51.829Z,6.20
2018-12-08T18:28:55.373Z,6.10
2018-12-08T18:33:59.682Z,6.00
2018-12-08T18:39:04.411Z,5.90
2018-12-08T18:44:08.958Z,5.90
2018-12-08T18:49:12.532Z,6.00
2018-12-08T18:54:16.475Z,6.10
2018-12-08T18:59:20.686Z,6.10
2018-12-08T19:04:24.346Z,6.20
2018-12-08T19:09:28.858Z,6.30
2018-12-08T19:14:32.685Z,6.30
2018-12-08T19:19:37.221Z,6.30
2018-12-08T19:24:41.195Z,6.30
2018-12-08T19:29:45.613Z,6.20
2018-12-08T19:34:50.689Z,6.10
2018-12-08T19:39:54.379Z,6.00
2018-12-08T19:44:58.113Z,6.00
2018-12-08T19:50:01.679Z,6.10
2018-12-08T19:55:05.378Z,6.30
2018-12-08T20:00:11.648Z,6.50
2018-12-08T20:05:15.605Z,6.60
2018-12-08T20:10:19.280Z,6.70
2018-12-08T20:15:22.923Z,6.70
2018-12-08T20:20:27.585Z,6.70
2018-12-08T20:25:31.100Z,6.70
2018-12-08T20:30:34.828Z,6.60
2018-12-08T20:35:38.472Z,6.60
2018-12-08T20:40:42.154Z,6.60
2018-12-08T20:45:46.224Z,6.50
2018-12-08T20:50:49.836Z,6.40
2018-12-08T20:55:53.415Z,6.40
2018-12-08T21:00:57.209Z,6.50
2018-12-08T21:06:01.211Z,6.50
2018-12-08T21:11:05.520Z,6.50
2018-12-08T21:16:09.104Z,6.60
2018-12-08T21:21:13.494Z,6.60
2018-12-08T21:26:17.376Z,6.70
2018-12-08T21:31:21.349Z,6.70
2018-12-08T21:36:25.205Z,6.70
2018-12-08T21:41:28.785Z,6.80
2018-12-08T21:46:32.992Z,6.90
2018-12-08T21:51:37.530Z,7.10
2018-12-08T21:56:42.358Z,7.10
2018-12-08T22:01:47.399Z,7.20
2018-12-08T22:06:52.075Z,7.10
2018-12-08T22:11:55.639Z,7.10
2018-12-08T22:16:59.709Z,7.00
2018-12-08T22:22:03.675Z,7.00
2018-12-08T22:27:07.314Z,6.90
2018-12-08T22:32:11.644Z,6.80
2018-12-08T22:37:15.871Z,6.90
2018-12-08T22:42:19.665Z,7.00
2018-12-08T22:47:24.125Z,7.00
2018-12-08T22:52:28.101Z,7.10
2018-12-08T22:57:31.893Z,7.20
2018-12-08T23:02:36.262Z,7.20
2018-12-08T23:07:40.022Z,7.30
2018-12-08T23:12:43.560Z,7.40
2018-12-08T23:17:47.406Z,7.50
2018-12-08T23:22:51.213Z,7.60
2018-12-08T23:27:54.773Z,7.70
2018-12-08T23:32:58.538Z,7.70
2018-12-08T23:38:02.382Z,7.70
2018-12-08T23:43:06.200Z,7.70
2018-12-08T23:48:10.132Z,7.70
2018-12-08T23:53:14.752Z,7.70
2018-12-08T23:58:19.041Z,7.70
